Time;durP1;ratioP1;P1;durP2;ratioP2;P2;SDS_P1;SDS_P2;PMS_P1;PMS_P2;Temp;Humidity;BMP_temperature;BMP_pressure;BME280_temperature;BME280_humidity;BME280_pressure;Samples;Min_cycle;Max_cycle;Signal;HPM_P1;HPM_P2
2023/03/04 00:01:30;;;;;;;25.00;14.63;;;5.60;87.20;;;;;;4957547;29;20180;-91
2023/03/04 00:03:56;;;;;;;23.63;13.50;;;5.60;87.10;;;;;;4957235;29;20182;-91
2023/03/04 00:06:22;;;;;;;23.83;13.13;;;5.60;87.00;;;;;;4940751;29;20294;-92
2023/03/04 00:08:48;;;;;;;25.10;13.97;;;5.50;86.90;;;;;;4956634;28;20221;-92
2023/03/04 00:11:13;;;;;;;14.60;12.97;;;5.60;86.90;;;;;;4939651;29;20199;-91
2023/03/04 00:13:39;;;;;;;18.77;13.00;;;5.60;86.60;;;;;;4939930;29;20183;-91
2023/03/04 00:16:05;;;;;;;23.20;13.13;;;5.60;86.60;;;;;;4939733;29;20653;-91
2023/03/04 00:18:30;;;;;;;16.70;11.80;;;5.60;86.70;;;;;;4940186;29;20246;-92
2023/03/04 00:20:56;;;;;;;22.67;13.17;;;5.70;86.70;;;;;;4940179;29;20184;-92
2023/03/04 00:23:22;;;;;;;17.63;12.93;;;5.60;86.70;;;;;;4940250;29;20186;-91
2023/03/04 00:25:47;;;;;;;19.97;13.77;;;5.60;86.90;;;;;;4940433;29;20179;-91
2023/03/04 00:28:13;;;;;;;22.40;13.17;;;5.70;86.90;;;;;;4939958;29;20203;-89
2023/03/04 00:30:38;;;;;;;20.87;13.30;;;5.60;86.90;;;;;;4957163;29;20240;-90
2023/03/04 00:33:04;;;;;;;15.07;13.00;;;5.60;87.00;;;;;;4956601;29;20203;-91
2023/03/04 00:35:29;;;;;;;20.50;13.13;;;5.70;86.80;;;;;;4939350;29;20529;-90
2023/03/04 00:37:55;;;;;;;18.03;12.00;;;5.60;86.70;;;;;;4939366;29;20199;-91
2023/03/04 00:40:20;;;;;;;28.17;14.10;;;5.70;86.60;;;;;;4956519;29;20179;-91
2023/03/04 00:42:46;;;;;;;20.33;14.73;;;5.60;86.70;;;;;;4956782;29;20179;-90
2023/03/04 00:45:11;;;;;;;17.63;12.40;;;5.60;86.80;;;;;;4939334;29;20275;-90
2023/03/04 00:47:37;;;;;;;23.80;12.83;;;5.60;86.90;;;;;;4939188;29;20270;-90
2023/03/04 00:50:03;;;;;;;19.37;13.73;;;5.70;86.80;;;;;;4956452;29;20333;-89
2023/03/04 00:52:29;;;;;;;28.40;14.73;;;5.70;86.80;;;;;;4956532;29;20199;-91
2023/03/04 00:54:54;;;;;;;22.93;12.97;;;5.60;86.80;;;;;;4956328;29;20599;-88
2023/03/04 00:57:20;;;;;;;26.43;12.90;;;5.70;86.80;;;;;;4956239;29;20209;-91
2023/03/04 00:59:45;;;;;;;18.10;12.20;;;5.60;86.80;;;;;;4956321;29;20186;-92
2023/03/04 01:02:11;;;;;;;13.47;12.00;;;5.60;87.00;;;;;;4939079;29;20179;-91
2023/03/04 01:04:37;;;;;;;17.77;12.30;;;5.60;87.10;;;;;;4956303;29;20672;-91
2023/03/04 01:07:03;;;;;;;18.43;12.30;;;5.60;87.20;;;;;;4956054;29;20283;-90
2023/03/04 01:09:29;;;;;;;18.00;12.33;;;5.60;87.10;;;;;;4956204;29;20274;-91
2023/03/04 01:11:54;;;;;;;20.40;14.00;;;5.60;87.10;;;;;;4956289;29;20294;-90
2023/03/04 01:14:20;;;;;;;17.50;11.93;;;5.60;87.00;;;;;;4938914;29;20258;-91
2023/03/04 01:16:45;;;;;;;14.50;12.60;;;5.70;86.80;;;;;;4956036;29;20238;-90
2023/03/04 01:19:11;;;;;;;19.00;12.70;;;5.60;86.90;;;;;;4956090;29;20176;-90
2023/03/04 01:21:36;;;;;;;18.53;12.63;;;5.60;87.00;;;;;;4955761;28;20548;-91
2023/03/04 01:24:02;;;;;;;20.90;13.00;;;5.60;87.20;;;;;;4956260;29;20697;-90
2023/03/04 01:26:28;;;;;;;17.03;12.10;;;5.60;87.30;;;;;;4955850;29;20202;-91
2023/03/04 01:28:53;;;;;;;25.83;13.03;;;5.60;87.40;;;;;;4955547;29;20182;-90
2023/03/04 01:31:19;;;;;;;25.70;14.90;;;5.60;87.50;;;;;;4938880;29;20209;-90
2023/03/04 01:33:45;;;;;;;22.33;13.47;;;5.50;87.60;;;;;;4955740;29;20564;-90
2023/03/04 01:36:10;;;;;;;26.13;12.90;;;5.50;87.80;;;;;;4955792;29;20184;-90
2023/03/04 01:38:36;;;;;;;22.07;14.00;;;5.60;87.80;;;;;;4955672;29;20213;-90
2023/03/04 01:41:02;;;;;;;17.80;13.20;;;5.60;87.80;;;;;;4955496;29;20301;-90
2023/03/04 01:43:29;;;;;;;31.53;15.07;;;5.50;87.90;;;;;;4955455;29;20202;-90
2023/03/04 01:45:56;;;;;;;36.03;13.80;;;5.50;87.80;;;;;;4955441;29;20194;-89
2023/03/04 01:48:26;;;;;;;18.13;12.80;;;5.60;87.70;;;;;;4955475;29;20283;-91
2023/03/04 01:50:52;;;;;;;25.27;14.53;;;5.60;87.60;;;;;;4955334;29;20198;-90
2023/03/04 01:53:26;;;;;;;21.33;13.53;;;5.60;87.60;;;;;;4955351;29;20175;-91
2023/03/04 01:55:54;;;;;;;26.13;13.23;;;5.60;87.50;;;;;;4955333;29;20623;-90
2023/03/04 01:58:20;;;;;;;18.03;13.73;;;5.60;87.60;;;;;;4955264;29;20266;-90
2023/03/04 02:00:46;;;;;;;25.63;13.33;;;5.70;87.60;;;;;;4955377;29;20739;-91
2023/03/04 02:03:14;;;;;;;30.00;13.57;;;5.60;87.60;;;;;;4938065;29;20186;-90
2023/03/04 02:05:42;;;;;;;29.30;13.30;;;5.70;87.60;;;;;;4938047;29;20179;-90
2023/03/04 02:08:09;;;;;;;20.47;13.03;;;5.70;87.70;;;;;;4938005;29;20211;-90
2023/03/04 02:10:35;;;;;;;16.73;13.20;;;5.70;87.60;;;;;;4954813;29;20215;-90
2023/03/04 02:13:01;;;;;;;20.27;12.70;;;5.70;87.60;;;;;;4955134;29;20278;-90
2023/03/04 02:15:27;;;;;;;27.00;13.73;;;5.80;87.50;;;;;;4937986;29;20215;-91
2023/03/04 02:17:53;;;;;;;21.23;13.50;;;5.80;87.50;;;;;;4955124;29;20569;-91
2023/03/04 02:20:27;;;;;;;24.73;13.73;;;5.70;87.60;;;;;;4955020;29;20191;-90
2023/03/04 02:23:14;;;;;;;21.27;13.53;;;5.80;87.60;;;;;;4955308;29;20172;-90
2023/03/04 02:26:08;;;;;;;19.63;12.80;;;5.80;87.50;;;;;;4955337;29;20637;-90
2023/03/04 02:28:34;;;;;;;21.33;12.70;;;5.80;87.40;;;;;;4949473;29;20624;-90
2023/03/04 02:31:00;;;;;;;19.57;13.03;;;5.80;87.50;;;;;;4954905;29;20210;-90
2023/03/04 02:33:26;;;;;;;21.33;13.47;;;5.80;87.60;;;;;;4939748;29;20676;-91
2023/03/04 02:35:51;;;;;;;31.30;15.27;;;5.80;87.80;;;;;;4941584;29;20536;-90
2023/03/04 02:38:17;;;;;;;18.23;13.13;;;5.80;87.80;;;;;;4941436;29;20661;-90
2023/03/04 02:40:47;;;;;;;17.97;13.27;;;5.70;87.90;;;;;;4958590;29;20180;-91
2023/03/04 02:43:12;;;;;;;19.63;13.23;;;5.80;88.00;;;;;;4958639;29;20202;-90
2023/03/04 02:45:44;;;;;;;25.73;13.37;;;5.70;88.10;;;;;;4958976;29;20225;-89
2023/03/04 02:48:11;;;;;;;26.73;14.20;;;5.80;88.50;;;;;;4941302;29;20210;-90
2023/03/04 02:50:41;;;;;;;32.80;14.67;;;5.70;88.70;;;;;;4958362;29;20210;-90
2023/03/04 02:53:07;;;;;;;27.77;15.07;;;5.70;89.00;;;;;;4941179;29;20179;-91
2023/03/04 02:55:33;;;;;;;21.30;15.43;;;5.60;89.10;;;;;;4958400;29;20207;-90
2023/03/04 02:57:58;;;;;;;29.60;15.43;;;5.70;89.20;;;;;;4958379;29;20222;-91
2023/03/04 03:00:24;;;;;;;28.40;17.40;;;5.60;89.40;;;;;;4958450;29;20179;-90
2023/03/04 03:02:50;;;;;;;18.27;15.07;;;5.50;89.70;;;;;;4958279;29;20186;-90
2023/03/04 03:05:16;;;;;;;27.47;16.33;;;5.60;89.90;;;;;;4958257;29;20184;-89
2023/03/04 03:07:42;;;;;;;23.23;16.50;;;5.50;90.10;;;;;;4958230;29;20203;-90
2023/03/04 03:10:08;;;;;;;25.03;16.77;;;5.50;90.20;;;;;;4958439;29;20215;-90
2023/03/04 03:12:33;;;;;;;26.40;17.43;;;5.50;90.40;;;;;;4941029;29;20646;-90
2023/03/04 03:14:59;;;;;;;28.50;17.70;;;5.50;90.40;;;;;;4958183;29;20180;-91
2023/03/04 03:17:24;;;;;;;19.27;16.87;;;5.50;90.40;;;;;;4957972;29;20308;-90
2023/03/04 03:19:50;;;;;;;16.77;14.80;;;5.50;90.40;;;;;;4958034;29;20185;-90
2023/03/04 03:22:15;;;;;;;19.87;16.07;;;5.50;90.30;;;;;;4958473;29;20182;-90
2023/03/04 03:24:41;;;;;;;28.77;18.17;;;5.50;90.20;;;;;;4957941;29;20574;-90
2023/03/04 03:27:07;;;;;;;22.97;15.53;;;5.50;90.30;;;;;;4957820;29;20205;-90
2023/03/04 03:29:32;;;;;;;33.13;17.57;;;5.50;90.40;;;;;;4957810;29;20548;-90
2023/03/04 03:31:58;;;;;;;16.70;14.60;;;5.50;90.30;;;;;;4957756;29;20297;-90
2023/03/04 03:34:23;;;;;;;21.70;15.97;;;5.50;90.30;;;;;;4957709;29;20218;-90
2023/03/04 03:36:49;;;;;;;24.67;15.50;;;5.60;90.10;;;;;;4957684;29;20226;-90
2023/03/04 03:39:14;;;;;;;21.87;15.27;;;5.60;89.90;;;;;;4957649;29;20636;-90
2023/03/04 03:41:40;;;;;;;22.40;14.27;;;5.60;89.80;;;;;;4957734;29;20183;-90
2023/03/04 03:44:07;;;;;;;20.63;14.87;;;5.60;89.70;;;;;;4957379;28;20186;-90
2023/03/04 03:46:34;;;;;;;20.87;14.80;;;5.60;89.60;;;;;;4957478;29;20209;-90
2023/03/04 03:49:00;;;;;;;21.00;14.87;;;5.60;89.50;;;;;;4957494;29;20178;-90
2023/03/04 03:51:25;;;;;;;20.17;14.67;;;5.60;89.30;;;;;;4940217;29;20262;-90
2023/03/04 03:53:51;;;;;;;19.20;14.03;;;5.60;89.10;;;;;;4957405;29;20234;-90
2023/03/04 03:56:16;;;;;;;18.10;14.67;;;5.70;88.90;;;;;;4957254;29;20202;-90
2023/03/04 03:58:42;;;;;;;25.27;14.90;;;5.70;88.80;;;;;;4957765;29;20194;-91
2023/03/04 04:01:08;;;;;;;15.70;14.17;;;5.70;88.70;;;;;;4940097;29;20186;-90
2023/03/04 04:03:33;;;;;;;22.13;16.20;;;5.70;88.80;;;;;;4957242;29;20186;-89
2023/03/04 04:05:59;;;;;;;19.13;16.37;;;5.70;89.30;;;;;;4940232;29;20290;-91
2023/03/04 04:08:25;;;;;;;24.90;17.77;;;5.60;90.00;;;;;;4957031;29;20184;-90
2023/03/04 04:10:50;;;;;;;24.00;18.97;;;5.60;90.50;;;;;;4956980;29;20207;-90
2023/03/04 04:13:16;;;;;;;21.83;19.93;;;5.50;90.90;;;;;;4939786;29;20222;-91
2023/03/04 04:15:41;;;;;;;24.97;22.07;;;5.50;91.20;;;;;;4957035;29;20175;-90
2023/03/04 04:18:08;;;;;;;25.67;20.40;;;5.40;91.60;;;;;;4956967;29;20194;-90
2023/03/04 04:20:33;;;;;;;23.17;21.03;;;5.40;91.60;;;;;;4957105;29;20187;-90
2023/03/04 04:22:59;;;;;;;24.23;21.90;;;5.40;91.90;;;;;;4957321;29;20237;-90
2023/03/04 04:25:25;;;;;;;23.70;21.23;;;5.40;92.10;;;;;;4956999;29;20194;-90
2023/03/04 04:27:50;;;;;;;28.57;25.47;;;5.40;92.10;;;;;;4956657;29;20215;-90
2023/03/04 04:30:16;;;;;;;27.07;24.00;;;5.40;92.20;;;;;;4956640;29;20692;-90
2023/03/04 04:32:42;;;;;;;35.93;28.37;;;5.40;92.20;;;;;;4956558;29;20179;-90
2023/03/04 04:35:07;;;;;;;37.23;27.53;;;5.40;92.40;;;;;;4956668;29;20185;-90
2023/03/04 04:37:33;;;;;;;30.97;27.77;;;5.40;92.50;;;;;;4956393;29;20282;-90
2023/03/04 04:39:58;;;;;;;34.87;30.20;;;5.30;92.70;;;;;;4956499;29;20227;-90
2023/03/04 04:42:24;;;;;;;35.73;29.30;;;5.40;92.80;;;;;;4956579;29;20175;-90
2023/03/04 04:44:51;;;;;;;31.20;28.60;;;5.30;92.90;;;;;;4956360;29;20243;-90
2023/03/04 04:47:17;;;;;;;30.03;27.20;;;5.30;93.00;;;;;;4956309;29;20194;-90
2023/03/04 04:49:42;;;;;;;34.20;27.50;;;5.30;93.00;;;;;;4956314;29;20598;-89
2023/03/04 04:52:08;;;;;;;29.67;24.37;;;5.30;92.80;;;;;;4956346;29;20290;-90
2023/03/04 04:54:33;;;;;;;30.60;24.20;;;5.30;92.70;;;;;;4956523;29;20544;-90
2023/03/04 04:56:59;;;;;;;30.03;21.93;;;5.30;92.50;;;;;;4955628;28;20673;-90
2023/03/04 04:59:24;;;;;;;30.57;18.97;;;5.30;92.40;;;;;;4939073;29;20348;-90
2023/03/04 05:01:50;;;;;;;38.13;17.60;;;5.30;91.90;;;;;;4956118;29;20197;-90
2023/03/04 05:04:16;;;;;;;26.03;17.47;;;5.30;91.60;;;;;;4956078;29;20579;-90
2023/03/04 05:06:41;;;;;;;27.87;17.43;;;5.30;91.30;;;;;;4956281;29;20202;-90
2023/03/04 05:09:07;;;;;;;33.43;17.17;;;5.30;90.90;;;;;;4956110;29;20289;-90
2023/03/04 05:11:33;;;;;;;34.77;15.77;;;5.30;90.50;;;;;;4938737;29;20214;-90
2023/03/04 05:13:58;;;;;;;28.43;15.80;;;5.30;90.10;;;;;;4956253;29;20662;-88
2023/03/04 05:16:24;;;;;;;32.77;13.87;;;5.30;89.80;;;;;;4955937;29;20219;-90
2023/03/04 05:18:49;;;;;;;22.57;12.70;;;5.30;89.40;;;;;;4938601;29;20668;-90
2023/03/04 05:21:15;;;;;;;34.60;14.53;;;5.30;88.70;;;;;;4955993;29;20640;-90
2023/03/04 05:23:41;;;;;;;27.60;12.80;;;5.30;87.80;;;;;;4955775;29;20194;-90
2023/03/04 05:26:10;;;;;;;32.63;13.60;;;5.30;87.00;;;;;;4955755;29;20183;-89
2023/03/04 05:28:35;;;;;;;43.37;14.30;;;5.30;86.20;;;;;;4955605;29;20669;-90
2023/03/04 05:31:01;;;;;;;30.00;14.97;;;5.30;85.90;;;;;;4955553;29;20206;-90
2023/03/04 05:33:27;;;;;;;28.03;14.27;;;5.30;85.70;;;;;;4955610;29;20183;-90
2023/03/04 05:35:53;;;;;;;33.20;15.50;;;5.30;85.70;;;;;;4955893;29;20536;-90
2023/03/04 05:38:20;;;;;;;36.00;15.27;;;5.30;85.90;;;;;;4955425;29;20199;-90
2023/03/04 05:40:47;;;;;;;28.97;14.13;;;5.30;86.10;;;;;;4955577;29;20183;-90
2023/03/04 05:43:13;;;;;;;30.00;14.00;;;5.30;86.20;;;;;;4955416;29;20190;-90
2023/03/04 05:45:39;;;;;;;26.43;14.40;;;5.30;86.40;;;;;;4955692;29;20269;-90
2023/03/04 05:48:06;;;;;;;31.00;15.90;;;5.30;86.40;;;;;;4938241;29;20201;-90
2023/03/04 05:50:32;;;;;;;27.70;15.93;;;5.30;86.60;;;;;;4955187;29;20202;-90
2023/03/04 05:52:58;;;;;;;37.17;15.77;;;5.30;86.70;;;;;;4938291;29;20192;-90
2023/03/04 05:55:23;;;;;;;32.33;16.17;;;5.30;86.90;;;;;;4938084;29;20179;-90
2023/03/04 05:57:49;;;;;;;30.13;15.23;;;5.30;86.80;;;;;;4955197;29;20301;-90
2023/03/04 06:00:16;;;;;;;37.03;16.50;;;5.30;86.50;;;;;;4955218;29;20187;-90
2023/03/04 06:02:42;;;;;;;34.37;13.93;;;5.30;86.50;;;;;;4955189;29;20664;-90
2023/03/04 06:05:10;;;;;;;41.77;14.53;;;5.20;85.80;;;;;;4955149;29;20178;-91
2023/03/04 06:07:37;;;;;;;33.70;15.73;;;5.20;85.00;;;;;;4954182;29;20233;-90
2023/03/04 06:10:04;;;;;;;43.80;15.00;;;5.20;84.10;;;;;;4955369;29;20249;-90
2023/03/04 06:12:29;;;;;;;39.40;16.00;;;5.20;83.30;;;;;;4955054;29;20182;-90
2023/03/04 06:14:55;;;;;;;33.40;16.57;;;5.10;83.10;;;;;;4955102;29;20183;-90
2023/03/04 06:17:20;;;;;;;40.07;17.23;;;5.10;83.00;;;;;;4955386;29;20193;-90
2023/03/04 06:19:46;;;;;;;36.73;14.10;;;5.00;82.90;;;;;;4955064;29;20183;-90
2023/03/04 06:22:12;;;;;;;33.53;16.00;;;5.00;82.40;;;;;;4955135;29;20182;-90
2023/03/04 06:24:37;;;;;;;24.20;15.40;;;5.10;82.30;;;;;;4955059;29;20186;-90
2023/03/04 06:27:03;;;;;;;44.27;17.13;;;5.10;82.10;;;;;;4955034;29;20689;-89
2023/03/04 06:29:29;;;;;;;37.03;14.77;;;5.10;82.10;;;;;;4954960;29;20184;-90
2023/03/04 06:31:54;;;;;;;29.67;16.00;;;5.00;82.40;;;;;;4955136;29;20265;-90
2023/03/04 06:34:20;;;;;;;31.57;14.60;;;5.00;82.70;;;;;;4955089;29;20168;-90
2023/03/04 06:36:46;;;;;;;27.47;15.27;;;5.00;82.80;;;;;;4954823;29;20277;-90
2023/03/04 06:39:11;;;;;;;33.83;14.73;;;5.00;82.90;;;;;;4954879;29;20230;-90
2023/03/04 06:41:37;;;;;;;33.60;15.37;;;5.00;83.10;;;;;;4954913;29;20194;-90
2023/03/04 06:44:03;;;;;;;22.27;13.03;;;5.00;83.20;;;;;;4954851;29;20182;-90
2023/03/04 06:46:29;;;;;;;32.47;14.50;;;5.00;83.20;;;;;;4955130;29;20289;-89
2023/03/04 06:48:56;;;;;;;24.90;14.80;;;5.00;83.20;;;;;;4954821;29;20213;-89
2023/03/04 06:51:21;;;;;;;44.07;15.57;;;5.00;83.10;;;;;;4954706;29;20210;-91
2023/03/04 06:53:47;;;;;;;36.60;14.43;;;5.00;83.30;;;;;;4955380;29;20183;-90
2023/03/04 06:56:16;;;;;;;28.40;12.83;;;5.00;83.40;;;;;;4954779;29;20185;-90
2023/03/04 06:58:45;;;;;;;25.97;13.07;;;4.90;83.30;;;;;;4955054;29;20179;-90
2023/03/04 07:01:15;;;;;;;28.73;13.40;;;4.90;82.80;;;;;;4954959;29;20179;-90
2023/03/04 07:03:41;;;;;;;30.73;14.90;;;4.90;82.20;;;;;;4954752;29;20182;-90
2023/03/04 07:06:10;;;;;;;29.20;14.83;;;4.90;81.60;;;;;;4937510;29;20182;-90
2023/03/04 07:08:35;;;;;;;27.57;13.97;;;4.80;81.10;;;;;;4954497;29;20283;-90
2023/03/04 07:11:01;;;;;;;26.27;13.57;;;4.90;80.80;;;;;;4937488;29;20212;-89
2023/03/04 07:13:27;;;;;;;27.13;14.47;;;4.90;80.70;;;;;;4937367;29;20648;-90
2023/03/04 07:15:52;;;;;;;28.87;15.67;;;4.90;80.60;;;;;;4954557;29;20606;-91
2023/03/04 07:18:18;;;;;;;39.47;15.43;;;4.90;80.70;;;;;;4937598;29;20564;-90
2023/03/04 07:20:43;;;;;;;29.03;15.57;;;4.90;80.70;;;;;;4958148;29;20650;-90
2023/03/04 07:23:09;;;;;;;30.97;16.47;;;4.90;80.90;;;;;;4940997;29;20190;-90
2023/03/04 07:25:34;;;;;;;28.50;15.03;;;4.80;80.90;;;;;;4957992;29;20178;-90
2023/03/04 07:28:00;;;;;;;34.67;15.20;;;4.90;80.70;;;;;;4957858;29;20234;-90
2023/03/04 07:30:26;;;;;;;25.63;14.70;;;4.90;80.80;;;;;;4957987;29;20573;-90
2023/03/04 07:32:52;;;;;;;30.37;14.23;;;4.90;80.90;;;;;;4957811;29;20671;-90
2023/03/04 07:35:18;;;;;;;29.07;14.73;;;4.90;80.70;;;;;;4957710;29;20182;-90
2023/03/04 07:37:43;;;;;;;27.63;14.93;;;4.90;81.00;;;;;;4940329;29;20203;-90
2023/03/04 07:40:11;;;;;;;27.10;13.80;;;4.90;81.40;;;;;;4958171;29;20654;-90
2023/03/04 07:42:37;;;;;;;33.40;15.00;;;4.80;81.60;;;;;;4957849;29;20549;-90
2023/03/04 07:45:04;;;;;;;32.13;14.77;;;4.90;81.50;;;;;;4940574;29;20186;-90
2023/03/04 07:47:29;;;;;;;40.70;15.30;;;4.90;81.20;;;;;;4941454;29;20250;-90
2023/03/04 07:49:55;;;;;;;26.30;13.53;;;4.90;81.40;;;;;;4941220;29;20195;-90
2023/03/04 07:52:20;;;;;;;27.13;13.67;;;4.90;80.70;;;;;;4957398;29;20249;-89
2023/03/04 07:54:46;;;;;;;33.40;14.07;;;4.80;80.60;;;;;;4957389;29;20187;-90
2023/03/04 07:57:12;;;;;;;38.27;13.83;;;4.80;80.50;;;;;;4940611;29;20199;-90
2023/03/04 07:59:37;;;;;;;32.30;13.47;;;4.90;80.30;;;;;;4940116;29;20674;-90
2023/03/04 08:02:03;;;;;;;35.30;13.57;;;4.90;80.20;;;;;;4957236;29;20204;-91
2023/03/04 08:04:28;;;;;;;33.73;13.10;;;4.90;80.50;;;;;;4957096;29;20559;-90
2023/03/04 08:06:54;;;;;;;31.20;13.07;;;4.90;80.70;;;;;;4957088;29;20279;-90
2023/03/04 08:09:19;;;;;;;43.17;13.67;;;4.90;81.00;;;;;;4957156;29;20286;-90
2023/03/04 08:11:45;;;;;;;33.07;14.37;;;4.90;81.20;;;;;;4957118;29;20285;-90
2023/03/04 08:14:12;;;;;;;45.83;14.03;;;5.00;81.40;;;;;;4957336;29;20637;-90
2023/03/04 08:16:38;;;;;;;33.10;14.37;;;4.90;81.10;;;;;;4956939;29;20578;-90
2023/03/04 08:19:04;;;;;;;37.93;13.40;;;4.90;80.30;;;;;;4957300;29;20183;-90
2023/03/04 08:21:30;;;;;;;33.80;13.80;;;4.90;80.20;;;;;;4956949;29;20281;-90
2023/03/04 08:23:58;;;;;;;32.67;14.10;;;4.90;79.80;;;;;;4939786;29;20678;-90
2023/03/04 08:26:32;;;;;;;31.53;13.73;;;4.90;79.60;;;;;;4957003;29;20199;-90
2023/03/04 08:29:01;;;;;;;29.70;13.90;;;4.90;79.40;;;;;;4956930;29;20167;-91
2023/03/04 08:31:26;;;;;;;28.73;12.97;;;4.90;79.40;;;;;;4956088;28;20285;-90
2023/03/04 08:33:52;;;;;;;34.47;14.23;;;4.90;78.70;;;;;;4956907;28;20578;-90
2023/03/04 08:36:18;;;;;;;39.20;15.00;;;4.90;78.60;;;;;;4957122;29;20194;-90
2023/03/04 08:38:44;;;;;;;46.07;13.57;;;4.90;78.90;;;;;;4956648;29;20229;-91
2023/03/04 08:41:09;;;;;;;53.90;15.63;;;4.90;78.90;;;;;;4956871;29;20186;-90
2023/03/04 08:43:35;;;;;;;35.13;13.67;;;4.90;78.80;;;;;;4956479;29;20186;-90
2023/03/04 08:46:01;;;;;;;31.50;13.47;;;4.90;79.00;;;;;;4939260;29;20187;-90
2023/03/04 08:48:27;;;;;;;36.33;14.80;;;4.90;78.20;;;;;;4956776;29;20633;-88
2023/03/04 08:50:52;;;;;;;33.83;14.23;;;4.90;78.00;;;;;;4956890;29;20226;-91
2023/03/04 08:53:19;;;;;;;27.90;12.87;;;5.00;77.90;;;;;;4956344;29;20183;-90
2023/03/04 08:55:45;;;;;;;37.70;14.67;;;5.00;77.80;;;;;;4956428;29;20174;-91
2023/03/04 08:58:11;;;;;;;44.40;15.67;;;5.00;77.90;;;;;;4939099;29;20198;-91
2023/03/04 09:00:41;;;;;;;29.80;14.23;;;5.00;77.80;;;;;;4939212;29;20209;-90
2023/03/04 09:03:06;;;;;;;30.23;14.20;;;5.00;77.90;;;;;;4956461;29;20178;-90
2023/03/04 09:05:32;;;;;;;35.60;13.93;;;5.00;78.00;;;;;;4956205;29;20197;-90
2023/03/04 09:07:57;;;;;;;37.90;14.47;;;5.00;77.90;;;;;;4956221;29;20571;-91
2023/03/04 09:10:24;;;;;;;39.10;14.77;;;5.00;77.80;;;;;;4956123;29;20218;-90
2023/03/04 09:12:50;;;;;;;41.70;14.17;;;5.10;77.10;;;;;;4956452;29;20191;-90
2023/03/04 09:15:16;;;;;;;39.60;14.83;;;5.20;76.60;;;;;;4956227;29;20205;-91
2023/03/04 09:17:41;;;;;;;31.67;14.77;;;5.20;76.40;;;;;;4939058;29;20595;-91
2023/03/04 09:20:10;;;;;;;26.40;14.13;;;5.30;77.10;;;;;;4955907;29;20182;-90
2023/03/04 09:22:36;;;;;;;44.63;14.63;;;5.30;77.30;;;;;;4955828;29;20175;-90
2023/03/04 09:25:02;;;;;;;38.20;15.87;;;5.30;77.60;;;;;;4955835;29;20266;-91
2023/03/04 09:27:28;;;;;;;39.17;13.43;;;5.30;78.00;;;;;;4938666;29;20297;-90
2023/03/04 09:29:53;;;;;;;33.83;13.63;;;5.20;78.50;;;;;;4956076;29;20175;-90
2023/03/04 09:32:19;;;;;;;43.27;17.13;;;5.30;77.90;;;;;;4955643;29;20213;-90
2023/03/04 09:34:44;;;;;;;31.60;13.13;;;5.30;78.20;;;;;;4955609;29;20176;-90
2023/03/04 09:37:10;;;;;;;42.13;14.73;;;5.30;78.30;;;;;;4955438;29;20709;-89
2023/03/04 09:39:35;;;;;;;46.80;14.83;;;5.30;78.40;;;;;;4955546;29;20182;-89
2023/03/04 09:42:03;;;;;;;37.13;15.20;;;5.40;78.20;;;;;;4955466;28;20183;-90
2023/03/04 09:44:41;;;;;;;44.43;14.03;;;5.40;78.20;;;;;;4938342;29;20190;-90
2023/03/04 09:47:16;;;;;;;35.00;13.60;;;5.50;78.30;;;;;;4955697;29;20197;-90
2023/03/04 09:49:47;;;;;;;34.27;14.30;;;5.40;78.30;;;;;;4939133;29;20186;-91
2023/03/04 09:52:43;;;;;;;38.23;14.53;;;5.30;78.50;;;;;;4955036;29;20654;-90
2023/03/04 09:55:33;;;;;;;32.93;13.93;;;5.40;78.60;;;;;;4955519;29;20171;-91
2023/03/04 09:58:13;;;;;;;39.00;14.70;;;5.40;79.20;;;;;;4938180;29;20210;-91
2023/03/04 10:00:43;;;;;;;28.47;13.27;;;5.30;79.30;;;;;;4955999;29;20163;-91
2023/03/04 10:03:13;;;;;;;38.10;14.23;;;5.30;79.60;;;;;;4955477;29;20559;-91
2023/03/04 10:06:02;;;;;;;40.70;13.53;;;5.30;79.90;;;;;;4955336;29;20209;-91
2023/03/04 10:08:53;;;;;;;30.83;13.43;;;5.30;79.90;;;;;;4955225;29;20599;-90
2023/03/04 10:11:31;;;;;;;29.93;14.07;;;5.30;78.90;;;;;;4955859;29;20197;-90
2023/03/04 10:14:00;;;;;;;34.90;14.00;;;5.30;77.80;;;;;;4955451;29;20558;-90
2023/03/04 10:16:31;;;;;;;41.53;15.27;;;5.40;76.70;;;;;;4955228;29;20292;-90
2023/03/04 10:19:27;;;;;;;38.17;15.67;;;5.50;75.30;;;;;;4938084;29;20167;-90
2023/03/04 10:21:52;;;;;;;36.80;15.67;;;5.50;73.10;;;;;;4955295;29;20238;-91
2023/03/04 10:24:23;;;;;;;27.57;15.43;;;5.50;72.90;;;;;;4955651;29;20588;-90
2023/03/04 10:27:00;;;;;;;43.73;18.47;;;5.50;73.70;;;;;;4955128;29;20676;-91
2023/03/04 10:29:28;;;;;;;34.07;16.30;;;5.50;73.20;;;;;;4955250;29;20656;-90
2023/03/04 10:31:55;;;;;;;42.90;17.47;;;5.50;73.90;;;;;;4955363;29;20210;-90
2023/03/04 10:34:21;;;;;;;40.67;17.27;;;5.50;73.90;;;;;;4955634;29;20722;-90
2023/03/04 10:36:58;;;;;;;43.83;16.27;;;5.50;73.80;;;;;;4954980;29;20246;-90
2023/03/04 10:39:33;;;;;;;46.53;15.90;;;5.50;73.30;;;;;;4937927;29;20198;-90
2023/03/04 10:42:14;;;;;;;33.43;16.10;;;5.60;73.30;;;;;;4955009;29;20218;-91
2023/03/04 10:44:52;;;;;;;38.07;16.40;;;5.60;74.00;;;;;;4955173;29;20187;-90
2023/03/04 10:47:29;;;;;;;28.47;15.90;;;5.70;73.40;;;;;;4955106;29;20199;-90
2023/03/04 10:49:57;;;;;;;35.10;16.90;;;5.70;72.20;;;;;;4954921;29;20642;-90
2023/03/04 10:52:30;;;;;;;34.50;16.97;;;5.80;72.60;;;;;;4954915;29;20213;-90
2023/03/04 10:54:59;;;;;;;43.40;16.77;;;5.70;72.70;;;;;;4957450;28;20646;-90
2023/03/04 10:57:31;;;;;;;37.53;17.87;;;5.80;72.50;;;;;;4941196;29;20249;-90
2023/03/04 10:59:59;;;;;;;40.50;16.70;;;5.80;73.50;;;;;;4942036;29;20535;-91
2023/03/04 11:02:33;;;;;;;36.50;16.33;;;5.80;73.00;;;;;;4942089;29;20190;-90
2023/03/04 11:05:14;;;;;;;36.67;16.33;;;5.80;73.80;;;;;;4958402;29;20713;-90
2023/03/04 11:07:43;;;;;;;35.30;16.57;;;5.80;73.90;;;;;;4958341;29;20199;-90
2023/03/04 11:10:23;;;;;;;30.27;16.07;;;5.80;74.10;;;;;;4958218;29;20202;-90
2023/03/04 11:13:14;;;;;;;36.77;15.13;;;5.80;74.40;;;;;;4942439;29;20548;-92
2023/03/04 11:16:22;;;;;;;31.83;14.87;;;5.80;74.70;;;;;;4941976;29;20625;-91
2023/03/04 11:18:54;;;;;;;42.37;15.33;;;5.80;75.00;;;;;;4941530;29;20219;-90
2023/03/04 11:21:23;;;;;;;33.93;14.70;;;5.80;75.70;;;;;;4958636;29;20207;-90
2023/03/04 11:23:49;;;;;;;36.47;14.87;;;5.80;76.60;;;;;;4958699;29;20573;-90
2023/03/04 11:26:27;;;;;;;40.50;15.70;;;5.70;77.60;;;;;;4957972;29;20183;-90
2023/03/04 11:29:00;;;;;;;43.67;16.27;;;5.70;78.00;;;;;;4958156;29;20243;-90
2023/03/04 11:31:56;;;;;;;36.67;14.30;;;5.70;78.20;;;;;;4959373;29;20203;-92
2023/03/04 11:34:29;;;;;;;40.80;13.77;;;5.80;78.50;;;;;;4938434;29;20191;-92
2023/03/04 11:37:18;;;;;;;33.83;13.07;;;5.70;79.10;;;;;;4943380;29;20252;-91
2023/03/04 11:40:10;;;;;;;32.57;13.00;;;5.80;77.80;;;;;;4959375;29;20262;-90
2023/03/04 11:42:41;;;;;;;35.73;13.73;;;5.70;77.30;;;;;;4941867;29;20258;-91
2023/03/04 11:45:45;;;;;;;26.57;13.10;;;5.60;77.30;;;;;;4941282;29;20214;-90
2023/03/04 11:48:37;;;;;;;31.90;12.77;;;5.60;77.80;;;;;;4938345;29;20302;-92
2023/03/04 11:51:25;;;;;;;29.77;14.23;;;5.50;78.00;;;;;;4942321;29;20198;-91
2023/03/04 11:54:19;;;;;;;26.50;13.17;;;5.40;77.50;;;;;;4941790;29;20168;-91
2023/03/04 11:56:50;;;;;;;28.87;13.47;;;5.40;78.50;;;;;;4957474;29;20669;-90
2023/03/04 11:59:39;;;;;;;30.37;12.93;;;5.50;78.70;;;;;;4957521;29;20171;-88
2023/03/04 12:02:15;;;;;;;35.17;13.70;;;5.60;78.60;;;;;;4957625;29;20237;-88
2023/03/04 12:04:55;;;;;;;34.57;13.50;;;5.60;78.10;;;;;;4957228;28;20187;-88
2023/03/04 12:07:45;;;;;;;29.33;12.83;;;5.70;78.10;;;;;;4940956;29;20245;-91
2023/03/04 12:10:43;;;;;;;40.50;14.10;;;5.70;78.40;;;;;;4940275;29;20206;-90
2023/03/04 12:13:24;;;;;;;38.10;13.03;;;5.70;78.20;;;;;;4945842;29;20277;-89
2023/03/04 12:16:17;;;;;;;30.33;13.27;;;5.70;78.60;;;;;;4957152;29;20168;-91
2023/03/04 12:19:08;;;;;;;41.80;15.33;;;5.60;78.70;;;;;;4957465;29;20188;-91
2023/03/04 12:22:18;;;;;;;34.80;14.27;;;5.60;77.80;;;;;;4957275;29;20685;-89
2023/03/04 12:24:56;;;;;;;29.03;12.87;;;5.70;78.10;;;;;;4939846;29;20241;-90
2023/03/04 12:27:27;;;;;;;38.43;14.57;;;5.80;78.00;;;;;;4956878;29;20205;-90
2023/03/04 12:30:15;;;;;;;40.77;15.10;;;5.80;77.00;;;;;;4956747;29;20183;-89
2023/03/04 12:33:12;;;;;;;31.53;14.57;;;5.80;74.90;;;;;;4956910;29;20540;-90
2023/03/04 12:36:03;;;;;;;28.43;16.43;;;5.80;72.10;;;;;;4917689;29;20191;-91
2023/03/04 12:39:08;;;;;;;33.47;16.30;;;5.90;72.10;;;;;;4939704;29;20619;-89
2023/03/04 12:41:44;;;;;;;33.30;18.57;;;6.20;70.60;;;;;;4948580;29;20249;-90
2023/03/04 12:44:21;;;;;;;36.53;22.97;;;6.30;70.00;;;;;;4939540;29;20167;-90
2023/03/04 12:47:12;;;;;;;33.47;19.67;;;6.30;69.50;;;;;;4955429;29;20242;-90